createdAt,value
2023-06-08T00:00:33.010Z,17.54
2023-06-08T00:03:45.098Z,17.45
2023-06-08T00:06:53.805Z,17.40
2023-06-08T00:09:57.583Z,17.41
2023-06-08T00:13:00.145Z,17.39
2023-06-08T00:16:08.644Z,17.35
2023-06-08T00:19:13.406Z,17.41
2023-06-08T00:22:22.733Z,17.33
2023-06-08T00:25:30.505Z,17.38
2023-06-08T00:28:35.001Z,17.42
2023-06-08T00:31:40.206Z,17.44
2023-06-08T00:34:42.475Z,17.43
2023-06-08T00:37:51.734Z,17.35
2023-06-08T00:40:56.498Z,17.33
2023-06-08T00:43:58.850Z,17.45
2023-06-08T00:47:01.375Z,17.28
2023-06-08T00:50:08.585Z,17.29
2023-06-08T00:53:11.113Z,17.35
2023-06-08T00:56:19.874Z,17.31
2023-06-08T00:59:25.215Z,17.32
2023-06-08T01:02:33.041Z,17.34
2023-06-08T01:05:44.554Z,17.41
2023-06-08T01:09:17.944Z,17.48
2023-06-08T01:12:25.559Z,17.44
2023-06-08T01:15:39.305Z,17.39
2023-06-08T01:18:46.056Z,17.42
2023-06-08T01:22:03.265Z,17.49
2023-06-08T01:25:09.856Z,17.44
2023-06-08T01:28:15.183Z,17.41
2023-06-08T01:31:19.796Z,17.43
2023-06-08T01:34:24.349Z,17.46
2023-06-08T01:37:46.797Z,17.46
2023-06-08T01:40:58.375Z,17.41
2023-06-08T01:44:06.611Z,17.52
2023-06-08T01:47:19.497Z,17.48
2023-06-08T01:50:28.984Z,17.55
2023-06-08T01:53:31.622Z,17.47
2023-06-08T01:56:37.152Z,17.49
2023-06-08T01:59:42.466Z,17.51
2023-06-08T02:02:46.372Z,17.56
2023-06-08T02:05:49.195Z,17.54
2023-06-08T02:08:51.483Z,17.53
2023-06-08T02:12:15.853Z,17.50
2023-06-08T02:15:21.635Z,17.50
2023-06-08T02:18:28.561Z,17.55
2023-06-08T02:21:31.218Z,17.56
2023-06-08T02:24:33.515Z,17.53
2023-06-08T02:27:38.482Z,17.55
2023-06-08T02:30:42.910Z,17.49
2023-06-08T02:33:45.513Z,17.50
2023-06-08T02:36:53.013Z,17.55
2023-06-08T02:39:57.943Z,17.50
2023-06-08T02:43:07.215Z,17.47
2023-06-08T02:46:09.609Z,17.49
2023-06-08T02:49:12.283Z,17.50
2023-06-08T02:52:17.296Z,17.50
2023-06-08T02:55:19.646Z,17.53
2023-06-08T02:58:24.644Z,17.49
2023-06-08T03:01:38.883Z,17.52
2023-06-08T03:04:49.601Z,17.55
2023-06-08T03:07:54.186Z,17.51
2023-06-08T03:10:56.818Z,17.48
2023-06-08T03:13:59.277Z,17.43
2023-06-08T03:17:06.195Z,17.49
2023-06-08T03:20:12.804Z,17.47
2023-06-08T03:23:25.545Z,17.49
2023-06-08T03:26:29.651Z,17.48
2023-06-08T03:29:35.652Z,17.51
2023-06-08T03:32:49.974Z,17.51
2023-06-08T03:35:57.409Z,17.50
2023-06-08T03:39:12.409Z,17.65
2023-06-08T03:42:17.388Z,17.62
2023-06-08T03:45:29.437Z,17.61
2023-06-08T03:48:32.832Z,17.57
2023-06-08T03:51:42.853Z,17.62
2023-06-08T03:54:46.355Z,17.59
2023-06-08T03:57:51.982Z,17.61
2023-06-08T04:00:54.693Z,17.68
2023-06-08T04:04:00.181Z,17.66
2023-06-08T04:07:06.357Z,17.78
2023-06-08T04:10:13.978Z,17.88
2023-06-08T04:13:20.439Z,17.90
2023-06-08T04:16:23.481Z,17.86
2023-06-08T04:19:29.251Z,17.92
2023-06-08T04:22:34.500Z,17.92
2023-06-08T04:25:40.348Z,17.91
2023-06-08T04:28:43.297Z,17.91
2023-06-08T04:31:46.442Z,17.93
2023-06-08T04:34:49.319Z,17.94
2023-06-08T04:37:54.340Z,17.97
2023-06-08T04:41:02.374Z,18.03
2023-06-08T04:44:14.375Z,18.02
2023-06-08T04:47:16.939Z,18.02
2023-06-08T04:50:22.020Z,18.12
2023-06-08T04:53:27.178Z,18.08
2023-06-08T04:56:30.864Z,18.00
2023-06-08T04:59:33.956Z,18.03
2023-06-08T05:02:38.600Z,18.09
2023-06-08T05:05:41.078Z,17.91
2023-06-08T05:08:44.820Z,18.08
2023-06-08T05:11:48.519Z,18.09
2023-06-08T05:14:51.283Z,18.19
2023-06-08T05:17:53.914Z,18.18
2023-06-08T05:20:56.376Z,18.15
2023-06-08T05:23:58.754Z,18.18
2023-06-08T05:27:01.099Z,18.16
2023-06-08T05:30:06.363Z,18.19
2023-06-08T05:33:08.875Z,18.22
2023-06-08T05:36:13.394Z,18.26
2023-06-08T05:39:16.000Z,18.30
2023-06-08T05:42:18.369Z,18.31
2023-06-08T05:45:22.938Z,18.30
2023-06-08T05:48:25.625Z,18.38
2023-06-08T05:51:30.592Z,18.41
2023-06-08T05:54:32.934Z,18.29
2023-06-08T05:57:35.578Z,18.38
2023-06-08T06:00:41.104Z,18.40
2023-06-08T06:03:48.414Z,18.43
2023-06-08T06:06:51.060Z,18.37
2023-06-08T06:09:56.046Z,18.42
2023-06-08T06:13:00.446Z,18.53
2023-06-08T06:16:07.715Z,18.46
2023-06-08T06:19:10.188Z,18.48
2023-06-08T06:22:14.917Z,18.65
2023-06-08T06:25:20.072Z,18.67
2023-06-08T06:28:24.840Z,18.56
2023-06-08T06:31:32.276Z,18.59
2023-06-08T06:34:38.914Z,18.68
2023-06-08T06:37:41.219Z,18.46
2023-06-08T06:40:43.505Z,18.55
2023-06-08T06:43:46.040Z,18.51
2023-06-08T06:46:52.632Z,18.50
2023-06-08T06:49:57.558Z,18.65
2023-06-08T06:52:59.958Z,18.42
2023-06-08T06:56:02.409Z,18.34
2023-06-08T06:59:06.042Z,18.36
2023-06-08T07:02:08.379Z,18.45
2023-06-08T07:05:15.656Z,18.53
2023-06-08T07:08:18.524Z,18.58
2023-06-08T07:11:25.767Z,18.51
2023-06-08T07:14:28.173Z,18.71
2023-06-08T07:17:32.873Z,18.75
2023-06-08T07:20:35.288Z,18.79
2023-06-08T07:24:15.133Z,18.92
2023-06-08T07:27:00.686Z,19.00
2023-06-08T07:30:03.872Z,19.02
2023-06-08T07:33:07.477Z,18.98
2023-06-08T07:36:09.897Z,19.12
2023-06-08T07:39:14.751Z,19.16
2023-06-08T07:42:22.058Z,19.30
2023-06-08T07:45:24.625Z,19.36
2023-06-08T07:48:27.032Z,19.40
2023-06-08T07:51:32.218Z,19.37
2023-06-08T07:54:37.021Z,19.45
2023-06-08T07:57:42.019Z,19.48
2023-06-08T08:00:46.679Z,19.38
2023-06-08T08:03:52.688Z,19.25
2023-06-08T08:06:58.582Z,19.29
2023-06-08T08:10:04.612Z,19.28
2023-06-08T08:13:08.438Z,19.42
2023-06-08T08:16:13.164Z,19.44
2023-06-08T08:19:17.244Z,19.61
2023-06-08T08:22:19.808Z,19.63
2023-06-08T08:25:22.803Z,19.64
2023-06-08T08:28:25.148Z,20.00
2023-06-08T08:31:27.479Z,20.01
2023-06-08T08:34:29.925Z,20.02
2023-06-08T08:37:35.203Z,20.34
2023-06-08T08:40:38.243Z,20.53
2023-06-08T08:43:55.799Z,20.63
2023-06-08T08:47:03.542Z,20.71
2023-06-08T08:50:10.967Z,20.63
2023-06-08T08:53:15.705Z,20.63
2023-06-08T08:56:26.411Z,20.59
2023-06-08T08:59:34.561Z,20.53
2023-06-08T09:02:39.657Z,20.60
2023-06-08T09:05:42.332Z,20.77
2023-06-08T09:08:51.965Z,20.95
2023-06-08T09:12:01.806Z,21.12
2023-06-08T09:15:04.697Z,21.30
2023-06-08T09:18:18.604Z,21.41
2023-06-08T09:21:28.254Z,21.70
2023-06-08T09:24:33.128Z,21.90
2023-06-08T09:27:38.659Z,21.94
2023-06-08T09:30:49.961Z,22.05
2023-06-08T09:34:05.378Z,22.40
2023-06-08T09:37:09.230Z,22.55
2023-06-08T09:40:20.264Z,22.62
2023-06-08T09:43:35.096Z,22.89
2023-06-08T09:46:42.587Z,22.88
2023-06-08T09:49:47.577Z,22.74
2023-06-08T09:52:53.092Z,23.07
2023-06-08T09:55:56.160Z,23.34
2023-06-08T09:59:05.485Z,23.26
2023-06-08T10:02:25.955Z,23.53
2023-06-08T10:05:31.826Z,23.64
2023-06-08T10:08:38.319Z,23.39
2023-06-08T10:11:40.831Z,23.42
2023-06-08T10:14:48.538Z,23.38
2023-06-08T10:17:54.508Z,23.39
2023-06-08T10:20:58.350Z,23.06
2023-06-08T10:24:03.583Z,22.79
2023-06-08T10:27:18.922Z,22.45
2023-06-08T10:30:49.964Z,22.28
2023-06-08T10:33:55.367Z,21.75
2023-06-08T10:36:57.659Z,21.46
2023-06-08T10:40:01.199Z,21.58
2023-06-08T10:43:25.960Z,21.51
2023-06-08T10:46:48.306Z,21.51
2023-06-08T10:49:58.605Z,21.54
2023-06-08T10:53:01.048Z,21.48
2023-06-08T10:56:05.857Z,21.48
2023-06-08T10:59:10.528Z,21.67
2023-06-08T11:02:12.929Z,21.90
2023-06-08T11:05:17.088Z,21.81
2023-06-08T11:08:19.768Z,21.84
2023-06-08T11:11:24.273Z,22.06
2023-06-08T11:14:27.070Z,22.22
2023-06-08T11:17:40.516Z,22.34
2023-06-08T11:20:43.802Z,22.57
2023-06-08T11:23:46.528Z,22.74
2023-06-08T11:27:03.056Z,22.97
2023-06-08T11:30:17.953Z,22.95
2023-06-08T11:33:22.824Z,22.80
2023-06-08T11:36:26.693Z,22.81
2023-06-08T11:39:34.176Z,22.69
2023-06-08T11:42:40.790Z,22.73
2023-06-08T11:45:44.142Z,22.76
2023-06-08T11:48:47.779Z,23.00
2023-06-08T11:51:54.531Z,23.24
2023-06-08T11:55:01.112Z,23.38
2023-06-08T11:58:09.121Z,23.51
2023-06-08T12:01:14.314Z,23.28
2023-06-08T12:04:16.611Z,23.32
2023-06-08T12:07:19.058Z,23.30
2023-06-08T12:10:21.620Z,23.26
2023-06-08T12:13:26.172Z,22.99
2023-06-08T12:16:30.887Z,23.11
2023-06-08T12:19:35.643Z,23.20
2023-06-08T12:22:37.876Z,23.31
2023-06-08T12:25:42.572Z,23.39
2023-06-08T12:28:44.934Z,23.63
2023-06-08T12:31:49.729Z,23.58
2023-06-08T12:34:54.359Z,23.79
2023-06-08T12:37:56.693Z,23.81
2023-06-08T12:41:01.250Z,23.90
2023-06-08T12:44:05.958Z,23.96
2023-06-08T12:47:10.289Z,23.90
2023-06-08T12:50:13.784Z,24.08
2023-06-08T12:53:21.100Z,23.84
2023-06-08T12:56:26.272Z,23.68
2023-06-08T12:59:30.817Z,23.69
2023-06-08T13:02:33.651Z,23.71
2023-06-08T13:05:36.283Z,23.92
2023-06-08T13:08:40.901Z,24.11
2023-06-08T13:11:45.457Z,24.01
2023-06-08T13:14:48.255Z,24.02
2023-06-08T13:17:52.788Z,23.91
2023-06-08T13:20:55.253Z,23.81
2023-06-08T13:23:57.691Z,23.92
2023-06-08T13:26:59.949Z,23.55
2023-06-08T13:30:02.268Z,23.61
2023-06-08T13:33:09.086Z,23.43
2023-06-08T13:36:11.462Z,23.57
2023-06-08T13:39:14.147Z,23.57
2023-06-08T13:42:18.495Z,23.76
2023-06-08T13:45:21.802Z,23.64
2023-06-08T13:48:28.673Z,23.56
2023-06-08T13:51:30.977Z,23.50
2023-06-08T13:54:39.876Z,23.50
2023-06-08T13:57:42.180Z,23.52
2023-06-08T14:00:47.201Z,23.45
2023-06-08T14:03:49.480Z,23.50
2023-06-08T14:06:53.906Z,23.47
2023-06-08T14:09:58.674Z,23.56
2023-06-08T14:13:03.679Z,23.62
2023-06-08T14:16:06.753Z,23.76
2023-06-08T14:19:09.047Z,23.77
2023-06-08T14:22:15.220Z,23.74
2023-06-08T14:25:19.967Z,23.61
2023-06-08T14:28:24.516Z,23.65
2023-06-08T14:31:26.903Z,23.79
2023-06-08T14:34:34.562Z,23.96
2023-06-08T14:37:39.242Z,24.03
2023-06-08T14:40:42.001Z,23.64
2023-06-08T14:43:46.512Z,23.32
2023-06-08T14:46:53.419Z,23.41
2023-06-08T14:49:55.912Z,23.39
2023-06-08T14:53:00.727Z,23.25
2023-06-08T14:56:05.577Z,23.36
2023-06-08T14:59:10.540Z,23.39
2023-06-08T15:02:15.349Z,23.20
2023-06-08T15:05:22.508Z,22.70
2023-06-08T15:08:24.813Z,22.84
2023-06-08T15:11:29.331Z,23.11
2023-06-08T15:14:34.239Z,23.11
2023-06-08T15:17:36.601Z,23.17
2023-06-08T15:20:41.173Z,23.19
2023-06-08T15:23:46.619Z,22.99
2023-06-08T15:26:49.371Z,23.18
2023-06-08T15:29:52.384Z,23.18
2023-06-08T15:33:07.639Z,22.91
2023-06-08T15:36:10.096Z,22.92
2023-06-08T15:39:12.788Z,22.97
2023-06-08T15:42:15.238Z,23.04
2023-06-08T15:45:17.724Z,22.99
2023-06-08T15:48:20.195Z,22.93
2023-06-08T15:51:31.752Z,23.06
2023-06-08T15:54:35.460Z,22.94
2023-06-08T15:57:37.820Z,22.83
2023-06-08T16:00:41.038Z,22.62
2023-06-08T16:03:43.471Z,22.61
2023-06-08T16:06:46.966Z,22.70
2023-06-08T16:09:49.338Z,22.67
2023-06-08T16:12:53.821Z,22.57
2023-06-08T16:15:56.364Z,22.54
2023-06-08T16:18:58.714Z,22.61
2023-06-08T16:22:01.053Z,22.58
2023-06-08T16:25:03.948Z,22.50
2023-06-08T16:28:06.542Z,22.35
2023-06-08T16:31:11.239Z,22.31
2023-06-08T16:34:13.520Z,22.37
2023-06-08T16:37:15.927Z,22.33
2023-06-08T16:40:18.413Z,22.32
2023-06-08T16:43:20.990Z,22.28
2023-06-08T16:46:23.665Z,22.35
2023-06-08T16:49:26.007Z,22.32
2023-06-08T16:52:28.228Z,22.38
2023-06-08T16:55:33.046Z,22.34
2023-06-08T16:58:36.733Z,22.38
2023-06-08T17:01:41.465Z,22.18
2023-06-08T17:04:43.748Z,22.13
2023-06-08T17:07:46.113Z,22.07
2023-06-08T17:10:48.359Z,21.99
2023-06-08T17:13:50.781Z,21.88
2023-06-08T17:16:58.007Z,21.80
2023-06-08T17:20:01.663Z,21.81
2023-06-08T17:23:03.984Z,21.73
2023-06-08T17:26:08.633Z,21.71
2023-06-08T17:29:11.269Z,21.74
2023-06-08T17:32:16.354Z,21.75
2023-06-08T17:35:21.335Z,21.68
2023-06-08T17:38:23.963Z,21.74
2023-06-08T17:41:26.326Z,21.68
2023-06-08T17:44:28.711Z,21.54
2023-06-08T17:47:34.636Z,21.56
2023-06-08T17:50:39.465Z,21.61
2023-06-08T17:53:44.765Z,21.52
2023-06-08T17:56:49.315Z,21.46
2023-06-08T17:59:54.470Z,21.33
2023-06-08T18:02:57.387Z,21.36
2023-06-08T18:06:11.512Z,21.36
2023-06-08T18:09:24.015Z,21.22
2023-06-08T18:12:31.487Z,21.22
2023-06-08T18:15:33.942Z,21.16
2023-06-08T18:18:36.512Z,21.21
2023-06-08T18:21:40.565Z,21.25
2023-06-08T18:24:42.951Z,21.13
2023-06-08T18:27:45.235Z,21.23
2023-06-08T18:30:47.570Z,21.28
2023-06-08T18:33:53.311Z,21.33
2023-06-08T18:36:55.635Z,21.31
2023-06-08T18:39:59.443Z,21.39
2023-06-08T18:43:05.572Z,21.37
2023-06-08T18:46:10.288Z,21.29
2023-06-08T18:49:13.168Z,21.27
2023-06-08T18:52:20.452Z,21.18
2023-06-08T18:55:25.064Z,21.14
2023-06-08T18:58:30.064Z,21.09
2023-06-08T19:01:32.470Z,21.04
2023-06-08T19:04:35.082Z,21.04
2023-06-08T19:07:42.136Z,21.00
2023-06-08T19:10:49.686Z,20.98
2023-06-08T19:13:54.099Z,20.98
2023-06-08T19:16:59.759Z,21.03
2023-06-08T19:20:02.445Z,21.01
2023-06-08T19:23:07.140Z,20.97
2023-06-08T19:26:09.446Z,20.99
2023-06-08T19:29:14.285Z,20.99
2023-06-08T19:32:19.112Z,21.00
2023-06-08T19:35:24.177Z,21.00
2023-06-08T19:38:26.829Z,20.87
2023-06-08T19:41:29.370Z,20.95
2023-06-08T19:44:31.744Z,20.88
2023-06-08T19:47:36.661Z,20.87
2023-06-08T19:50:39.039Z,20.89
2023-06-08T19:53:41.716Z,20.79
2023-06-08T19:56:46.301Z,20.79
2023-06-08T19:59:53.757Z,20.74
2023-06-08T20:02:58.155Z,20.73
2023-06-08T20:06:01.129Z,20.79
2023-06-08T20:09:11.520Z,20.75
2023-06-08T20:12:13.952Z,20.56
2023-06-08T20:15:20.853Z,20.71
2023-06-08T20:18:23.350Z,20.68
2023-06-08T20:21:25.788Z,20.68
2023-06-08T20:24:29.168Z,20.69
2023-06-08T20:27:33.656Z,20.66
2023-06-08T20:30:41.657Z,20.62
2023-06-08T20:33:46.413Z,20.75
2023-06-08T20:36:48.679Z,20.56
2023-06-08T20:39:51.025Z,20.58
2023-06-08T20:42:57.843Z,20.63
2023-06-08T20:46:02.724Z,20.43
2023-06-08T20:49:06.344Z,20.45
2023-06-08T20:52:11.168Z,20.49
2023-06-08T20:55:13.581Z,20.41
2023-06-08T20:58:16.821Z,20.22
2023-06-08T21:01:21.445Z,20.16
2023-06-08T21:04:30.739Z,20.26
2023-06-08T21:07:33.184Z,20.18
2023-06-08T21:10:38.698Z,20.17
2023-06-08T21:13:43.688Z,20.15
2023-06-08T21:16:49.638Z,20.16
2023-06-08T21:19:54.114Z,20.18
2023-06-08T21:22:56.302Z,20.22
2023-06-08T21:25:58.640Z,20.18
2023-06-08T21:29:01.328Z,20.05
2023-06-08T21:32:04.415Z,20.08
2023-06-08T21:35:07.434Z,20.07
2023-06-08T21:38:12.380Z,20.10
2023-06-08T21:41:15.686Z,20.13
2023-06-08T21:44:18.103Z,20.11
2023-06-08T21:47:22.695Z,20.10
2023-06-08T21:50:27.397Z,20.14
2023-06-08T21:53:29.710Z,19.99
2023-06-08T21:56:35.031Z,20.00
2023-06-08T21:59:39.550Z,19.81
2023-06-08T22:02:44.357Z,19.75
2023-06-08T22:05:46.677Z,19.70
2023-06-08T22:08:51.230Z,19.66
2023-06-08T22:11:54.897Z,19.66
2023-06-08T22:15:00.287Z,19.70
2023-06-08T22:18:07.120Z,19.58
2023-06-08T22:21:12.782Z,19.67
2023-06-08T22:24:17.885Z,19.58
2023-06-08T22:27:22.621Z,19.55
2023-06-08T22:30:24.930Z,19.56
2023-06-08T22:33:27.430Z,19.48
2023-06-08T22:36:33.794Z,19.48
2023-06-08T22:39:36.112Z,19.33
2023-06-08T22:42:40.735Z,19.45
2023-06-08T22:45:46.394Z,19.44
2023-06-08T22:48:54.259Z,19.54
2023-06-08T22:52:03.085Z,19.53
2023-06-08T22:55:08.727Z,19.58
2023-06-08T22:58:11.402Z,19.56
2023-06-08T23:01:19.847Z,19.38
2023-06-08T23:04:22.600Z,19.37
2023-06-08T23:07:28.004Z,19.34
2023-06-08T23:10:31.943Z,19.52
2023-06-08T23:13:38.982Z,19.53
2023-06-08T23:16:41.410Z,19.50
2023-06-08T23:19:48.597Z,19.43
2023-06-08T23:22:56.529Z,19.47
2023-06-08T23:26:01.126Z,19.61
2023-06-08T23:29:06.706Z,19.52
2023-06-08T23:32:09.115Z,19.55
2023-06-08T23:35:13.898Z,19.56
2023-06-08T23:38:16.216Z,19.60
2023-06-08T23:41:22.433Z,19.53
2023-06-08T23:44:27.108Z,19.50
2023-06-08T23:47:29.495Z,19.38
2023-06-08T23:50:40.282Z,19.42
2023-06-08T23:53:45.009Z,19.34
2023-06-08T23:56:49.732Z,19.22
2023-06-08T23:59:52.026Z,19.27
